Pagrindinis puslapis
METAR-TAF:

METAR-TAF

Oro uostai :

Lábrea, Amazonė, Brazilija

platuma: 07-15-01S, ilguma: 064-47-02W, Aukštis: 58 m

Dabartinis oras

Ataskaita buvo paskelbta 1 valandą ir 20 minutes, ne 20:00 UTC
Vėjas 17 kt iš Šiaurės
Temperatūra 24°C
Drėgmė 83%
Slėgis 1015 hPa
Matomumas 10 km arba daugiau
Mažai debesys ne aukštis 1600 ft

METAR: SBLB 212000Z AUTO 00017KT 9999 FEW016 24/21 Q1015 W24/S4

Laikas: 17:20 (21:20 UTC)


TAF: trūkstamas

Orai ataskaitas ir orų prognozės (METAR, TAF).

turimą stotys yra geltonos ir raudonos taškus žemėlapyje.

Perkelti pele per norėdami pamatyti stoties vardą.

Tada spustelėkite, norėdami matyti oro stebėjimo ir prognozės.

Norėdami pakeisti žemėlapį: spustelėkite ant žalios mygtukų su juodo kryžiaus žemyn,; žalią mygtuką su brūkšneliu, jei norite nutolinti; arba žalių rodyklių gretimoms žemėlapius.


METAR-TAF: